createdAt,value
2018-12-22T00:02:18.626Z,99.90
2018-12-22T00:04:50.487Z,99.90
2018-12-22T00:07:22.303Z,99.90
2018-12-22T00:09:55.029Z,99.90
2018-12-22T00:12:26.900Z,99.90
2018-12-22T00:14:59.086Z,99.90
2018-12-22T00:17:30.751Z,99.90
2018-12-22T00:20:02.412Z,99.90
2018-12-22T00:22:34.483Z,99.90
2018-12-22T00:25:06.458Z,99.90
2018-12-22T00:27:38.887Z,99.90
2018-12-22T00:30:12.963Z,99.90
2018-12-22T00:32:45.300Z,99.90
2018-12-22T00:35:17.478Z,99.90
2018-12-22T00:37:49.553Z,99.90
2018-12-22T00:40:22.017Z,99.90
2018-12-22T00:42:54.200Z,99.90
2018-12-22T00:45:26.525Z,99.90
2018-12-22T00:47:58.508Z,99.90
2018-12-22T00:50:30.608Z,99.90
2018-12-22T00:53:02.406Z,99.90
2018-12-22T00:55:34.171Z,99.90
2018-12-22T00:58:06.374Z,99.90
2018-12-22T01:00:38.877Z,99.90
2018-12-22T01:03:11.984Z,99.90
2018-12-22T01:05:44.325Z,99.90
2018-12-22T01:08:16.114Z,99.90
2018-12-22T01:10:48.130Z,99.90
2018-12-22T01:13:20.216Z,99.90
2018-12-22T01:15:52.296Z,99.90
2018-12-22T01:18:24.974Z,99.90
2018-12-22T01:20:56.649Z,99.90
2018-12-22T01:23:29.288Z,99.90
2018-12-22T01:26:02.170Z,99.90
2018-12-22T01:28:39.323Z,99.90
2018-12-22T01:31:08.194Z,99.90
2018-12-22T01:33:40.645Z,99.90
2018-12-22T01:36:13.170Z,99.90
2018-12-22T01:38:45.017Z,99.90
2018-12-22T01:41:16.868Z,99.90
2018-12-22T01:43:48.960Z,99.90
2018-12-22T01:46:20.760Z,99.90
2018-12-22T01:48:52.588Z,99.90
2018-12-22T01:51:24.809Z,99.90
2018-12-22T01:53:56.804Z,99.90
2018-12-22T01:56:29.037Z,99.90
2018-12-22T01:59:01.766Z,99.90
2018-12-22T02:01:33.594Z,99.90
2018-12-22T02:04:06.396Z,99.90
2018-12-22T02:06:39.402Z,99.90
2018-12-22T02:09:12.409Z,99.90
2018-12-22T02:11:44.764Z,99.90
2018-12-22T02:14:16.583Z,99.90
2018-12-22T02:16:48.490Z,99.90
2018-12-22T02:19:20.894Z,99.90
2018-12-22T02:21:52.596Z,99.90
2018-12-22T02:24:25.375Z,99.90
2018-12-22T02:26:58.253Z,99.90
2018-12-22T02:29:30.303Z,99.90
2018-12-22T02:32:02.342Z,99.90
2018-12-22T02:34:34.917Z,99.90
2018-12-22T02:37:06.842Z,99.90
2018-12-22T02:39:39.575Z,99.90
2018-12-22T02:42:11.699Z,99.90
2018-12-22T02:44:43.914Z,99.90
2018-12-22T02:47:15.710Z,99.90
2018-12-22T02:49:48.372Z,99.90
2018-12-22T02:52:20.479Z,99.90
2018-12-22T02:54:52.355Z,99.90
2018-12-22T02:57:24.398Z,99.90
2018-12-22T02:59:56.318Z,99.90
2018-12-22T03:02:28.359Z,99.90
2018-12-22T03:05:00.834Z,99.90
2018-12-22T03:07:32.591Z,99.90
2018-12-22T03:10:05.350Z,99.90
2018-12-22T03:12:37.895Z,99.90
2018-12-22T03:15:09.837Z,99.90
2018-12-22T03:17:41.877Z,99.90
2018-12-22T03:20:13.794Z,99.90
2018-12-22T03:22:45.779Z,99.90
2018-12-22T03:25:18.566Z,99.90
2018-12-22T03:27:50.309Z,99.90
2018-12-22T03:30:22.231Z,99.90
2018-12-22T03:32:54.000Z,99.90
2018-12-22T03:35:26.074Z,99.90
2018-12-22T03:37:57.889Z,99.90
2018-12-22T03:40:30.662Z,99.90
2018-12-22T03:43:02.602Z,99.90
2018-12-22T03:45:34.758Z,99.90
2018-12-22T03:48:07.076Z,99.90
2018-12-22T03:50:39.254Z,99.90
2018-12-22T03:53:11.195Z,99.90
2018-12-22T03:55:43.280Z,99.90
2018-12-22T03:58:16.804Z,99.90
2018-12-22T04:00:48.723Z,99.90
2018-12-22T04:03:20.630Z,99.90
2018-12-22T04:05:52.493Z,99.90
2018-12-22T04:08:24.631Z,99.90
2018-12-22T04:10:56.531Z,99.90
2018-12-22T04:13:28.480Z,99.90
2018-12-22T04:16:00.323Z,99.90
2018-12-22T04:18:32.738Z,99.90
2018-12-22T04:21:05.029Z,99.90
2018-12-22T04:23:36.840Z,99.90
2018-12-22T04:26:09.319Z,99.90
2018-12-22T04:28:41.345Z,99.90
2018-12-22T04:31:13.482Z,99.90
2018-12-22T04:33:45.420Z,99.90
2018-12-22T04:36:18.791Z,99.90
2018-12-22T04:38:51.056Z,99.90
2018-12-22T04:41:22.929Z,99.90
2018-12-22T04:43:55.253Z,99.90
2018-12-22T04:46:27.409Z,99.90
2018-12-22T04:48:59.717Z,99.90
2018-12-22T04:51:31.531Z,99.90
2018-12-22T04:54:04.463Z,99.90
2018-12-22T04:56:36.809Z,99.90
2018-12-22T04:59:09.112Z,99.90
2018-12-22T05:01:42.107Z,99.90
2018-12-22T05:04:13.862Z,99.90
2018-12-22T05:06:45.573Z,99.90
2018-12-22T05:09:17.610Z,99.90
2018-12-22T05:11:50.218Z,99.90
2018-12-22T05:14:23.158Z,99.90
2018-12-22T05:16:54.919Z,99.90
2018-12-22T05:19:26.912Z,99.90
2018-12-22T05:21:58.751Z,99.90
2018-12-22T05:24:31.306Z,99.90
2018-12-22T05:27:02.966Z,99.90
2018-12-22T05:29:35.335Z,99.90
2018-12-22T05:32:07.176Z,99.90
2018-12-22T05:34:38.854Z,99.90
2018-12-22T05:37:11.001Z,99.90
2018-12-22T05:39:42.693Z,99.90
2018-12-22T05:42:15.265Z,99.90
2018-12-22T05:44:48.156Z,99.90
2018-12-22T05:47:20.141Z,99.90
2018-12-22T05:49:51.961Z,99.90
2018-12-22T05:52:24.841Z,99.90
2018-12-22T05:54:57.028Z,99.90
2018-12-22T05:57:28.972Z,99.90
2018-12-22T06:00:01.051Z,99.90
2018-12-22T06:02:33.053Z,99.90
2018-12-22T06:05:07.318Z,99.90
2018-12-22T06:07:39.336Z,99.90
2018-12-22T06:10:11.479Z,99.90
2018-12-22T06:12:44.328Z,99.90
2018-12-22T06:15:16.182Z,99.90
2018-12-22T06:17:48.548Z,99.90
2018-12-22T06:20:20.381Z,99.90
2018-12-22T06:22:52.069Z,99.90
2018-12-22T06:25:24.194Z,99.90
2018-12-22T06:27:55.581Z,99.90
2018-12-22T06:30:27.419Z,99.90
2018-12-22T06:32:59.364Z,99.90
2018-12-22T06:35:32.479Z,99.90
2018-12-22T06:38:04.456Z,99.90
2018-12-22T06:40:36.417Z,99.90
2018-12-22T06:43:08.012Z,99.90
2018-12-22T06:45:40.130Z,99.90
2018-12-22T06:48:12.132Z,99.90
2018-12-22T06:50:43.987Z,99.90
2018-12-22T06:53:16.301Z,99.90
2018-12-22T06:55:48.399Z,99.90
2018-12-22T06:58:19.735Z,99.90
2018-12-22T07:00:51.724Z,99.90
2018-12-22T07:03:23.960Z,99.90
2018-12-22T07:05:56.290Z,99.90
2018-12-22T07:08:28.419Z,99.90
2018-12-22T07:11:00.220Z,99.90
2018-12-22T07:13:33.098Z,99.90
2018-12-22T07:16:07.409Z,99.90
2018-12-22T07:18:39.549Z,99.90
2018-12-22T07:21:11.399Z,99.90
2018-12-22T07:23:43.212Z,99.90
2018-12-22T07:26:15.129Z,99.90
2018-12-22T07:28:47.159Z,99.60
2018-12-22T07:31:19.585Z,99.00
2018-12-22T07:33:51.659Z,98.90
2018-12-22T07:36:25.260Z,97.90
2018-12-22T07:38:57.829Z,97.40
2018-12-22T07:41:30.076Z,97.30
2018-12-22T07:44:02.234Z,96.90
2018-12-22T07:46:34.101Z,96.70
2018-12-22T07:49:06.415Z,96.40
2018-12-22T07:51:38.285Z,97.10
2018-12-22T07:54:10.511Z,97.40
2018-12-22T07:56:42.687Z,97.30
2018-12-22T07:59:14.562Z,97.30
2018-12-22T08:01:46.956Z,97.40
2018-12-22T08:04:18.902Z,97.60
2018-12-22T08:06:51.170Z,97.60
2018-12-22T08:09:23.777Z,96.50
2018-12-22T08:11:55.740Z,97.10
2018-12-22T08:14:27.702Z,97.00
2018-12-22T08:17:00.157Z,97.20
2018-12-22T08:19:32.156Z,97.10
2018-12-22T08:22:04.962Z,96.50
2018-12-22T08:24:37.009Z,95.90
2018-12-22T08:27:08.819Z,94.40
2018-12-22T08:29:40.982Z,92.70
2018-12-22T08:32:12.547Z,91.60
2018-12-22T08:34:44.711Z,87.40
2018-12-22T08:37:17.485Z,86.30
2018-12-22T08:39:50.837Z,87.60
2018-12-22T08:42:23.002Z,86.00
2018-12-22T08:44:54.922Z,80.50
2018-12-22T08:47:26.431Z,79.00
2018-12-22T08:49:58.392Z,81.20
2018-12-22T08:52:31.017Z,81.80
2018-12-22T08:55:03.194Z,83.10
2018-12-22T08:57:35.145Z,85.00
2018-12-22T09:00:10.901Z,85.20
2018-12-22T09:02:42.846Z,84.40
2018-12-22T09:05:15.068Z,85.80
2018-12-22T09:07:47.200Z,86.10
2018-12-22T09:10:18.943Z,85.80
2018-12-22T09:12:51.406Z,84.90
2018-12-22T09:15:24.047Z,85.00
2018-12-22T09:17:56.302Z,84.60
2018-12-22T09:20:28.580Z,87.30
2018-12-22T09:23:00.491Z,88.90
2018-12-22T09:25:32.538Z,88.70
2018-12-22T09:28:04.578Z,88.80
2018-12-22T09:30:36.993Z,89.90
2018-12-22T09:33:09.093Z,88.60
2018-12-22T09:35:41.240Z,86.50
2018-12-22T09:38:13.700Z,88.10
2018-12-22T09:40:45.666Z,87.20
2018-12-22T09:43:17.465Z,89.00
2018-12-22T09:45:49.637Z,88.60
2018-12-22T09:48:22.610Z,88.60
2018-12-22T09:50:54.644Z,87.90
2018-12-22T09:53:26.848Z,87.10
2018-12-22T09:55:58.871Z,84.60
2018-12-22T09:58:30.856Z,84.40
2018-12-22T10:01:09.243Z,82.70
2018-12-22T10:03:37.456Z,84.30
2018-12-22T10:06:10.258Z,85.70
2018-12-22T10:08:42.353Z,86.60
2018-12-22T10:11:16.465Z,87.10
2018-12-22T10:13:48.795Z,86.40
2018-12-22T10:16:21.794Z,87.70
2018-12-22T10:18:54.260Z,88.60
2018-12-22T10:21:26.684Z,89.50
2018-12-22T10:23:58.946Z,88.90
2018-12-22T10:26:31.527Z,87.80
2018-12-22T10:29:03.812Z,87.60
2018-12-22T10:31:36.826Z,86.60
2018-12-22T10:34:09.312Z,86.00
2018-12-22T10:36:41.884Z,87.30
2018-12-22T10:39:13.736Z,87.30
2018-12-22T10:41:45.998Z,87.70
2018-12-22T10:44:18.347Z,88.00
2018-12-22T10:46:50.595Z,86.80
2018-12-22T10:49:22.880Z,87.90
2018-12-22T10:51:55.050Z,88.40
2018-12-22T10:54:27.540Z,88.60
2018-12-22T10:57:00.061Z,88.40
2018-12-22T10:59:32.466Z,87.60
2018-12-22T11:02:04.483Z,86.20
2018-12-22T11:04:37.363Z,86.40
2018-12-22T11:07:09.344Z,87.00
2018-12-22T11:09:42.309Z,87.50
2018-12-22T11:12:14.549Z,88.30
2018-12-22T11:14:47.030Z,89.00
2018-12-22T11:17:19.564Z,89.40
2018-12-22T11:19:52.576Z,90.00
2018-12-22T11:22:24.637Z,90.50
2018-12-22T11:24:56.961Z,90.70
2018-12-22T11:27:29.150Z,90.90
2018-12-22T11:30:01.438Z,90.20
2018-12-22T11:32:33.940Z,89.10
2018-12-22T11:35:06.211Z,88.50
2018-12-22T11:37:38.117Z,88.30
2018-12-22T11:40:11.499Z,88.10
2018-12-22T11:42:47.587Z,88.60
2018-12-22T11:45:18.579Z,90.00
2018-12-22T11:48:24.149Z,89.20
2018-12-22T11:50:57.169Z,89.50
2018-12-22T11:53:29.426Z,90.10
2018-12-22T11:56:01.931Z,89.70
2018-12-22T11:58:34.978Z,90.10
2018-12-22T12:01:07.057Z,90.30
2018-12-22T12:03:52.181Z,89.70
2018-12-22T12:06:23.176Z,90.20
2018-12-22T12:08:54.225Z,89.10
2018-12-22T12:11:25.422Z,88.20
2018-12-22T12:13:56.578Z,87.30
2018-12-22T12:16:44.652Z,87.90
2018-12-22T12:19:23.885Z,86.90
2018-12-22T12:21:54.831Z,87.20
2018-12-22T12:24:26.634Z,87.90
2018-12-22T12:26:58.118Z,89.20
2018-12-22T12:29:29.549Z,89.30
2018-12-22T12:32:00.577Z,89.80
2018-12-22T12:34:31.633Z,90.40
2018-12-22T12:37:02.606Z,90.70
2018-12-22T12:39:33.547Z,91.10
2018-12-22T12:42:04.580Z,91.20
2018-12-22T12:44:35.956Z,91.50
2018-12-22T12:47:07.026Z,92.20
2018-12-22T12:49:37.904Z,92.50
2018-12-22T12:52:08.956Z,92.90
2018-12-22T12:54:39.929Z,93.60
2018-12-22T12:57:11.188Z,93.70
2018-12-22T12:59:42.773Z,94.30
2018-12-22T13:02:13.998Z,94.60
2018-12-22T13:04:45.102Z,95.00
2018-12-22T13:07:16.146Z,95.10
2018-12-22T13:09:47.548Z,94.90
2018-12-22T13:12:24.248Z,95.10
2018-12-22T13:14:55.302Z,95.50
2018-12-22T13:17:26.918Z,95.90
2018-12-22T13:19:58.166Z,96.20
2018-12-22T13:22:29.513Z,96.00
2018-12-22T13:25:00.663Z,96.40
2018-12-22T13:27:31.794Z,96.30
2018-12-22T13:30:02.933Z,96.40
2018-12-22T13:32:34.192Z,96.50
2018-12-22T13:35:06.727Z,96.60
2018-12-22T13:37:38.061Z,96.90
2018-12-22T13:40:11.133Z,97.50
2018-12-22T13:42:42.199Z,98.60
2018-12-22T13:45:13.338Z,98.60
2018-12-22T13:47:44.646Z,98.70
2018-12-22T13:50:16.091Z,99.00
2018-12-22T13:52:47.194Z,99.00
2018-12-22T13:55:18.304Z,99.00
2018-12-22T13:57:49.527Z,98.90
2018-12-22T14:00:20.759Z,98.60
2018-12-22T14:02:52.011Z,98.70
2018-12-22T14:05:23.915Z,98.20
2018-12-22T14:07:55.126Z,98.30
2018-12-22T14:10:26.457Z,98.60
2018-12-22T14:12:57.616Z,99.00
2018-12-22T14:15:28.697Z,99.70
2018-12-22T14:18:17.577Z,99.60
2018-12-22T14:20:48.555Z,99.40
2018-12-22T14:23:20.655Z,99.60
2018-12-22T14:25:51.733Z,99.60
2018-12-22T14:28:22.955Z,98.70
2018-12-22T14:30:54.041Z,97.20
2018-12-22T14:33:25.482Z,97.10
2018-12-22T14:36:04.151Z,96.50
2018-12-22T14:38:35.302Z,97.00
2018-12-22T14:41:06.309Z,97.30
2018-12-22T14:43:37.588Z,97.40
2018-12-22T14:46:08.591Z,97.90
2018-12-22T14:48:39.725Z,98.70
2018-12-22T14:51:10.881Z,98.70
2018-12-22T14:53:42.058Z,99.10
2018-12-22T14:56:13.375Z,99.40
2018-12-22T14:58:44.533Z,99.50
2018-12-22T15:01:15.697Z,99.70
2018-12-22T15:03:46.985Z,99.90
2018-12-22T15:06:18.173Z,99.90
2018-12-22T15:08:49.382Z,99.90
2018-12-22T15:11:20.476Z,99.90
2018-12-22T15:13:51.513Z,99.90
2018-12-22T15:16:22.805Z,99.90
2018-12-22T15:18:54.112Z,99.90
2018-12-22T15:21:25.130Z,99.80
2018-12-22T15:23:56.293Z,99.50
2018-12-22T15:26:27.708Z,99.40
2018-12-22T15:28:59.053Z,99.80
2018-12-22T15:31:31.654Z,99.90
2018-12-22T15:34:02.953Z,99.90
2018-12-22T15:36:34.258Z,99.90
2018-12-22T15:39:07.658Z,99.90
2018-12-22T15:41:40.035Z,99.90
2018-12-22T15:44:12.115Z,99.90
2018-12-22T15:46:43.415Z,99.90
2018-12-22T15:49:16.377Z,99.90
2018-12-22T15:51:47.559Z,99.90
2018-12-22T15:54:18.710Z,99.90
2018-12-22T15:56:50.245Z,99.90
2018-12-22T15:59:21.605Z,99.90
2018-12-22T16:01:52.799Z,99.90
2018-12-22T16:04:24.014Z,99.90
2018-12-22T16:06:55.098Z,99.90
2018-12-22T16:09:26.187Z,99.90
2018-12-22T16:11:57.474Z,99.90
2018-12-22T16:14:28.618Z,99.90
2018-12-22T16:17:01.018Z,99.90
2018-12-22T16:19:32.813Z,99.90
2018-12-22T16:22:04.493Z,99.90
2018-12-22T16:24:35.600Z,99.90
2018-12-22T16:27:07.807Z,99.90
2018-12-22T16:29:44.328Z,99.90
2018-12-22T16:32:15.454Z,99.90
2018-12-22T16:34:46.491Z,99.90
2018-12-22T16:37:17.838Z,99.90
2018-12-22T16:39:48.836Z,99.90
2018-12-22T16:42:19.989Z,99.90
2018-12-22T16:44:51.617Z,99.90
2018-12-22T16:47:22.773Z,99.90
2018-12-22T16:49:54.340Z,99.90
2018-12-22T16:52:25.496Z,99.90
2018-12-22T16:54:56.624Z,99.90
2018-12-22T16:57:27.713Z,99.90
2018-12-22T16:59:58.752Z,99.90
2018-12-22T17:02:45.786Z,99.90
2018-12-22T17:05:16.928Z,99.90
2018-12-22T17:07:47.966Z,99.90
2018-12-22T17:10:24.641Z,99.90
2018-12-22T17:12:56.109Z,99.90
2018-12-22T17:15:27.223Z,99.90
2018-12-22T17:17:58.218Z,99.90
2018-12-22T17:20:31.974Z,99.90
2018-12-22T17:23:51.393Z,99.90
2018-12-22T17:26:24.472Z,99.90
2018-12-22T17:28:56.188Z,99.90
2018-12-22T17:31:27.471Z,99.90
2018-12-22T17:33:58.590Z,99.90
2018-12-22T17:36:29.741Z,99.90
2018-12-22T17:39:00.993Z,99.90
2018-12-22T17:41:32.379Z,99.90
2018-12-22T17:44:03.525Z,99.90
2018-12-22T17:46:34.643Z,99.90
2018-12-22T17:49:05.844Z,99.90
2018-12-22T17:51:38.958Z,99.90
2018-12-22T17:54:10.066Z,99.90
2018-12-22T17:56:41.243Z,99.90
2018-12-22T17:59:12.276Z,99.90
2018-12-22T18:01:44.246Z,99.90
2018-12-22T18:04:15.304Z,99.90
2018-12-22T18:06:46.374Z,99.90
2018-12-22T18:09:17.801Z,99.90
2018-12-22T18:11:49.028Z,99.90
2018-12-22T18:14:20.551Z,99.90
2018-12-22T18:16:52.429Z,99.90
2018-12-22T18:19:24.050Z,99.90
2018-12-22T18:21:55.553Z,99.90
2018-12-22T18:24:26.789Z,99.90
2018-12-22T18:26:58.105Z,99.90
2018-12-22T18:29:29.432Z,99.90
2018-12-22T18:32:00.452Z,99.90
2018-12-22T18:34:31.494Z,99.90
2018-12-22T18:37:02.610Z,99.90
2018-12-22T18:39:33.694Z,99.90
2018-12-22T18:42:04.784Z,99.90
2018-12-22T18:44:35.824Z,99.90
2018-12-22T18:47:06.993Z,99.90
2018-12-22T18:49:38.192Z,99.90
2018-12-22T18:52:09.242Z,99.90
2018-12-22T18:54:40.512Z,99.90
2018-12-22T18:57:12.450Z,99.90
2018-12-22T18:59:43.655Z,99.90
2018-12-22T19:02:15.135Z,99.90
2018-12-22T19:04:47.245Z,99.90
2018-12-22T19:07:20.271Z,99.90
2018-12-22T19:09:52.161Z,99.90
2018-12-22T19:12:23.260Z,99.90
2018-12-22T19:14:54.151Z,99.90
2018-12-22T19:17:25.178Z,99.90
2018-12-22T19:19:56.449Z,99.90
2018-12-22T19:22:28.266Z,99.90
2018-12-22T19:24:59.425Z,99.90
2018-12-22T19:27:30.644Z,99.90
2018-12-22T19:30:01.891Z,99.90
2018-12-22T19:32:33.133Z,99.90
2018-12-22T19:35:04.569Z,99.90
2018-12-22T19:37:35.670Z,99.90
2018-12-22T19:40:07.254Z,99.90
2018-12-22T19:42:38.395Z,99.90
2018-12-22T19:45:09.776Z,99.90
2018-12-22T19:47:40.881Z,99.90
2018-12-22T19:50:12.011Z,99.90
2018-12-22T19:52:44.285Z,99.90
2018-12-22T19:55:15.241Z,99.90
2018-12-22T19:57:46.259Z,99.90
2018-12-22T20:00:17.593Z,99.90
2018-12-22T20:02:48.893Z,99.90
2018-12-22T20:05:19.872Z,99.90
2018-12-22T20:07:51.110Z,99.90
2018-12-22T20:10:22.286Z,99.90
2018-12-22T20:12:53.380Z,99.90
2018-12-22T20:15:24.338Z,99.90
2018-12-22T20:17:55.422Z,99.90
2018-12-22T20:20:26.488Z,99.90
2018-12-22T20:22:57.470Z,99.90
2018-12-22T20:25:28.493Z,99.90
2018-12-22T20:27:59.610Z,99.90
2018-12-22T20:30:30.599Z,99.90
2018-12-22T20:33:02.028Z,99.90
2018-12-22T20:35:32.980Z,99.90
2018-12-22T20:38:04.108Z,99.90
2018-12-22T20:40:35.196Z,99.90
2018-12-22T20:43:06.416Z,99.90
2018-12-22T20:45:37.582Z,99.90
2018-12-22T20:48:08.672Z,99.90
2018-12-22T20:50:39.615Z,99.90
2018-12-22T20:53:10.581Z,99.90
2018-12-22T20:55:41.830Z,99.90
2018-12-22T20:58:12.948Z,99.90
2018-12-22T21:00:43.988Z,99.90
2018-12-22T21:03:15.063Z,99.90
2018-12-22T21:05:58.893Z,99.90
2018-12-22T21:08:30.665Z,99.90
2018-12-22T21:11:01.937Z,99.90
2018-12-22T21:13:32.934Z,99.90
2018-12-22T21:16:03.870Z,99.90
2018-12-22T21:18:34.951Z,99.90
2018-12-22T21:21:05.954Z,99.90
2018-12-22T21:23:37.128Z,99.90
2018-12-22T21:26:08.323Z,99.90
2018-12-22T21:28:39.313Z,99.90
2018-12-22T21:31:10.287Z,99.90
2018-12-22T21:33:41.606Z,99.90
2018-12-22T21:36:12.717Z,99.90
2018-12-22T21:38:43.770Z,99.90
2018-12-22T21:41:14.876Z,99.90
2018-12-22T21:43:45.908Z,99.90
2018-12-22T21:46:17.001Z,99.90
2018-12-22T21:48:48.471Z,99.90
2018-12-22T21:51:19.563Z,99.90
2018-12-22T21:53:50.800Z,99.90
2018-12-22T21:56:21.813Z,99.90
2018-12-22T21:58:52.773Z,99.90
2018-12-22T22:01:23.720Z,99.90
2018-12-22T22:03:54.773Z,99.90
2018-12-22T22:06:25.943Z,99.90
2018-12-22T22:08:56.865Z,99.90
2018-12-22T22:11:27.885Z,99.90
2018-12-22T22:13:59.077Z,99.90
2018-12-22T22:16:30.031Z,99.90
2018-12-22T22:19:00.933Z,99.90
2018-12-22T22:21:31.952Z,99.90
2018-12-22T22:24:03.040Z,99.90
2018-12-22T22:26:34.180Z,99.90
2018-12-22T22:29:05.324Z,99.90
2018-12-22T22:31:36.264Z,99.90
2018-12-22T22:34:07.174Z,99.90
2018-12-22T22:36:38.945Z,99.90
2018-12-22T22:39:10.338Z,99.90
2018-12-22T22:41:41.195Z,99.90
2018-12-22T22:44:12.167Z,99.90
2018-12-22T22:46:43.218Z,99.90
2018-12-22T22:49:14.331Z,99.90
2018-12-22T22:51:45.405Z,99.90
2018-12-22T22:54:16.650Z,99.90
2018-12-22T22:56:47.568Z,99.90
2018-12-22T22:59:18.858Z,99.90
2018-12-22T23:01:49.717Z,99.90
2018-12-22T23:04:22.500Z,99.90
2018-12-22T23:06:53.725Z,99.90
2018-12-22T23:09:24.867Z,99.90
2018-12-22T23:11:55.865Z,99.90
2018-12-22T23:14:26.723Z,99.90
2018-12-22T23:16:57.742Z,99.90
2018-12-22T23:19:28.799Z,99.90
2018-12-22T23:21:59.742Z,99.90
2018-12-22T23:24:30.500Z,99.90
2018-12-22T23:27:01.373Z,99.90
2018-12-22T23:29:32.520Z,99.90
2018-12-22T23:32:03.767Z,99.90
2018-12-22T23:34:34.932Z,99.90
2018-12-22T23:37:05.778Z,99.90
2018-12-22T23:39:37.252Z,99.90
2018-12-22T23:42:08.267Z,99.90
2018-12-22T23:44:39.755Z,99.90
2018-12-22T23:47:10.617Z,99.90
2018-12-22T23:49:41.715Z,99.90
2018-12-22T23:52:13.057Z,99.90
2018-12-22T23:54:43.870Z,99.90
2018-12-22T23:57:14.963Z,99.90
2018-12-22T23:59:46.217Z,99.90
